Portada
METAR-TAF:

METAR-TAF

Aeroports :

Armilla

Granada, Espanya

latitud: 37-08N, longitud: 003-38-08W, altitud: 700 m

Observació

L'informe es va fer fa 4 hores i 23 minuts, a les 18:00 UTC
Vent calma
Temperatura 11°C
Humitat 66%
Pressió 1015 hPa
Visibilitat 10 km o més
Núvols disperses a una alçada de 3800 ft
Cel cobert a una alçada de 7800 ft

METAR: LEGA 051800Z 00000KT 9999 SCT038 OVC078 11/05 Q1015

Hora: 23:23 (22:23 UTC)

Pronòstic

L'informe es va fer fa 8 hores i 23 minuts, a les 14:00 UTC
Pronòstic vàlid del 05 a les 15 UTC al 05 a les 24 UTC
Vent 2 kt amb direcció variable
Visibilitat 10 km o més
Núvols disperses a una alçada de 4000 ft

TAF: LEGA 051400Z 0515/0524 VRB02KT 9999 SCT040

Observacions i pronòstics meteorològics de més de 4000 aeroports (METAR i TAF).

Les estacions disponibles són els punts grocs i vermells al mapa.

Posi el ratolí al punt desitjat per veure el nom de l'estació.

Feu clic per veure les observacions i els pronòstics meteorològics.

Per canviar el mapa: feu clic els botons verds amb una creu de color negre per apropar; al botó verd amb un guió per allunyar la imatge; o en les fletxes verdes per a mapes adjacents.


METAR-TAF: